WetterOnline ( https://www.wetteronline.de )

Wetter aktuell Straßberg

Aktuelles Wetter: Messstetten (900m)

6-stündlich | Neueste Meldungen
Ortszeit Temperatur Wetter
Mi, 13.11. 1:00 -2.1° C bedeckt
Di, 12.11. 19:00 0.9° C bedeckt
Di, 12.11. 13:00 1.6° C bewölkt
Di, 12.11. 7:00 0.2° C bewölkt
Di, 12.11. 1:00 1.1° C Sprühregen
Mo, 11.11. 19:00 -0.0° C bedeckt
Mo, 11.11. 13:00 -1.2° C bedeckt
Mo, 11.11. 7:00 -6.2° C wolkenlos
Ortszeit Temperatur Wetter
Mi, 13.11. 5:00 -2.0° C bewölkt
Mi, 13.11. 4:50 -2.0° C bewölkt
Mi, 13.11. 4:40 -2.7° C wolkig
Mi, 13.11. 4:30 -4.2° C wolkig
Mi, 13.11. 4:20 -4.2° C wolkig
Mi, 13.11. 4:10 -3.8° C bedeckt
Mi, 13.11. 4:00 -2.3° C bedeckt
Mi, 13.11. 3:30 -3.9° C bedeckt
Mi, 13.11. 3:00 -2.5° C bewölkt
Mi, 13.11. 2:30 -1.5° C bewölkt
Mi, 13.11. 2:00 -1.2° C bewölkt
Ortszeit Relative Feuchte Sichtweite
Mi, 13.11. 1:00 96% 18 km
Di, 12.11. 19:00 85% 40 km
Di, 12.11. 13:00 78% 55 km
Di, 12.11. 7:00 85% 55 km
Di, 12.11. 1:00 94% 21 km
Mo, 11.11. 19:00 95% 10 km
Mo, 11.11. 13:00 96% 4.0 km
Mo, 11.11. 7:00 93% 16 km
Ortszeit Relative Feuchte Sichtweite
Mi, 13.11. 5:00 99% 18 km
Mi, 13.11. 4:50 99% -
Mi, 13.11. 4:40 99% -
Mi, 13.11. 4:30 95% 26 km
Mi, 13.11. 4:20 95% -
Mi, 13.11. 4:10 96% -
Mi, 13.11. 4:00 96% 35 km
Mi, 13.11. 3:30 96% 25 km
Mi, 13.11. 3:00 92% 35 km
Mi, 13.11. 2:30 97% 23 km
Mi, 13.11. 2:00 95% 30 km
Ortszeit Niederschlagsmenge Niederschlagsart
Mi, 13.11. 1:00 0.0 l/m2 in 6 Std. -
Di, 12.11. 19:00 0.0 l/m2 in 12 Std. -
Di, 12.11. 13:00 0.0 l/m2 in 6 Std. -
Di, 12.11. 7:00 1 l/m2 in 12 Std. Schnee, Regen
Di, 12.11. 1:00 0.4 l/m2 in 6 Std. Schnee, Regen
Mo, 11.11. 19:00 0.1 l/m2 in 12 Std. Schnee
Mo, 11.11. 13:00 0.1 l/m2 in 6 Std. -
Mo, 11.11. 7:00 0.0 l/m2 in 12 Std. -
Ortszeit Niederschlagsmenge Niederschlagsart
Mi, 13.11. 5:00 0.0 l/m2 in 1 Std. -
Mi, 13.11. 4:50 keine Meldung -
Mi, 13.11. 4:40 keine Meldung -
Mi, 13.11. 4:30 0.0 l/m2 in 1 Std. -
Mi, 13.11. 4:20 keine Meldung -
Mi, 13.11. 4:10 keine Meldung -
Mi, 13.11. 4:00 0.0 l/m2 in 1 Std. -
Mi, 13.11. 3:30 0.0 l/m2 in 1 Std. -
Mi, 13.11. 3:00 0.0 l/m2 in 1 Std. -
Mi, 13.11. 2:30 0.0 l/m2 in 1 Std. -
Mi, 13.11. 2:00 0.0 l/m2 in 1 Std. -
Ortszeit Stärke Spitze Richtung
km/h Bft. km/h Grad Sektor
Mi, 13.11. 1:00 4 1 14 130° SO
Di, 12.11. 19:00 7 2 29 180° S
Di, 12.11. 13:00 13 3 28 240° SW
Di, 12.11. 7:00 11 2 22 230° SW
Di, 12.11. 1:00 9 2 24 270° W
Mo, 11.11. 19:00 6 1 19 230° SW
Mo, 11.11. 13:00 11 2 22 180° S
Mo, 11.11. 7:00 4 1 11 90° O
Ortszeit Stärke Spitze Richtung
km/h Bft. km/h Grad Sektor
Mi, 13.11. 5:00 4 1 11 100° O
Mi, 13.11. 4:50 4 1 - 100° O
Mi, 13.11. 4:40 7 2 - 100° O
Mi, 13.11. 4:30 0 0 7 - -
Mi, 13.11. 4:20 0 0 - 220° SW
Mi, 13.11. 4:10 4 1 - 280° W
Mi, 13.11. 4:00 4 1 11 90° O
Mi, 13.11. 3:30 6 1 7 260° W
Mi, 13.11. 3:00 2 1 17 290° W
Mi, 13.11. 2:30 7 2 11 280° W
Mi, 13.11. 2:00 4 1 18 120° SO
Ortszeit Untergrenze Bedeckung Gattung
total tief tief mittel hoch
Mi, 13.11. 1:00 5700 m 8/8 8/8 - - -
Di, 12.11. 19:00 1500 m 8/8 8/8 - - -
Di, 12.11. 13:00 510 m 7/8 7/8 - - -
Di, 12.11. 7:00 660 m 7/8 7/8 - - -
Di, 12.11. 1:00 270 m 8/8 8/8 - - -
Mo, 11.11. 19:00 90 m 8/8 8/8 - - -
Mo, 11.11. 13:00 60 m 8/8 8/8 - - -
Mo, 11.11. 7:00 - 0/8 0/8 - - -
Ortszeit Bedeckungsgrad in Achtel und Wolkenuntergrenze
Mi, 13.11. 5:00 6(570m) 7(990m)
Mi, 13.11. 4:50 6(570m) 7(990m)
Mi, 13.11. 4:40 4(600m) 6(960m)
Mi, 13.11. 4:30 2(900m) 6(6000m)
Mi, 13.11. 4:20 2(900m) 6(6000m)
Mi, 13.11. 4:10 8(6000m)
Mi, 13.11. 4:00 8(5700m)
Mi, 13.11. 3:30 8(6000m)
Mi, 13.11. 3:00 7(6000m) 8(7800m)
Mi, 13.11. 2:30 5(6300m) 8(7500m)
Mi, 13.11. 2:00 4(990m) 8(6000m)
Ortszeit Stationsdruck (hPa) Tendenz (hPa in 3 Std.)
Mi, 13.11. 1:00 899 - 1,3
Di, 12.11. 19:00 901 - 1,0
Di, 12.11. 13:00 902 - 1,5
Di, 12.11. 7:00 905 + 0,2
Di, 12.11. 1:00 904 + 0,6
Mo, 11.11. 19:00 904 + 0,3
Mo, 11.11. 13:00 904 - 2,4
Mo, 11.11. 7:00 908 - 0,6
Ortszeit Stationsdruck (hPa) Tendenz (hPa in 3 Std.)
Mi, 13.11. 5:00 899 + 0,1
Mi, 13.11. 4:50 899 keine Meldung
Mi, 13.11. 4:40 899 keine Meldung
Mi, 13.11. 4:30 899 - 0,4
Mi, 13.11. 4:20 899 keine Meldung
Mi, 13.11. 4:10 899 keine Meldung
Mi, 13.11. 4:00 899 - 0,1
Mi, 13.11. 3:30 899 - 0,5
Mi, 13.11. 3:00 899 - 1,0
Mi, 13.11. 2:30 899 - 1,2
Mi, 13.11. 2:00 899 - 1,0
Ortszeit Schneehöhe (cm)
Mi, 13.11. 1:00 0
Di, 12.11. 19:00 0
Di, 12.11. 13:00 0
Di, 12.11. 7:00 0
Di, 12.11. 1:00 0
Mo, 11.11. 19:00 0
Mo, 11.11. 13:00 0
Mo, 11.11. 7:00 0
Ortszeit Schneehöhe (cm)
Mi, 13.11. 5:00 0
Mi, 13.11. 4:50 0
Mi, 13.11. 4:40 0
Mi, 13.11. 4:30 0
Mi, 13.11. 4:20 0
Mi, 13.11. 4:10 0
Mi, 13.11. 4:00 0
Mi, 13.11. 3:30 0
Mi, 13.11. 3:00 0
Mi, 13.11. 2:30 0
Mi, 13.11. 2:00 0
Link zu dieser Seite / Seite empfehlen

Das Wetter in ...